Low temp

Not for real navigation. The accuracy of this data is not assured See disclaimer for more information



ICAO NAME COUNTRY WIND Kt GUST Kt VIS m TEMP/DEW C BARO METAR
ZMUB Ulan-Bator Mongolia 0 0 9999 -33/-38 30.18 ZMUB 172230Z 00000KT CAVOK M33/M38 Q1022 NOSIG RMK QFE658.4 62
NZSP Amundsen-Scott South Pole Stat Antarctica 14 0 9999 -33/0 29.01 NZSP 172150Z 03014KT 9999 DRSN FEW030 M33/ A2901 RMK CLN AIR 03015KT ALL WNDS GRID SDG/HDG
UERR Mirny Russia 4 0 9999 -32/-36 30.47 UERR 172200Z 28004KT CAVOK M32/M36 Q1032 R25/810350 NOSIG RMK QFE742
CYOC Old Crow Airport Canada 2 0 32767 -30/-33 29.68 CYOC 172200Z VRB02KT 35SM FEW016 FEW038 FEW048 FEW200 M30/M33 A2968 RMK ST1SC1SC1CI1 ST TR CI TR SLP
UIII Irkutsk Russia 0 0 9999 -26/-28 30.36 UIII 172200Z 00000KT 9999 SCT003 M26/M28 Q1028 R12/820555 NOSIG RMK QBB110 QFE728/0971

Show more